Time;durP1;ratioP1;P1;durP2;ratioP2;P2;SDS_P1;SDS_P2;PMS_P1;PMS_P2;Temp;Humidity;BMP_temperature;BMP_pressure;BME280_temperature;BME280_humidity;BME280_pressure;Samples;Min_cycle;Max_cycle;Signal;HPM_P1;HPM_P2
2023/03/25 00:00:24;;;;;;;7.63;4.88;;;12.80;99.90;;;;;;5017271;28;20233;-76
2023/03/25 00:03:13;;;;;;;8.05;5.25;;;12.90;99.90;;;;;;5025805;28;20289;-76
2023/03/25 00:06:08;;;;;;;7.75;5.30;;;12.80;99.90;;;;;;4997445;28;20374;-77
2023/03/25 00:08:57;;;;;;;7.85;5.25;;;12.80;99.90;;;;;;5010268;28;20233;-77
2023/03/25 00:11:51;;;;;;;9.68;5.35;;;12.50;99.90;;;;;;5022886;28;20235;-76
2023/03/25 00:14:41;;;;;;;8.68;5.22;;;12.50;99.90;;;;;;5015929;28;20247;-77
2023/03/25 00:17:35;;;;;;;5.78;4.82;;;12.50;99.90;;;;;;5005040;28;20221;-76
2023/03/25 00:20:24;;;;;;;8.27;5.40;;;12.50;99.90;;;;;;5017905;28;20230;-77
2023/03/25 00:23:14;;;;;;;7.95;5.38;;;12.60;99.90;;;;;;5006301;28;20316;-77
2023/03/25 00:26:05;;;;;;;8.00;5.55;;;12.60;99.90;;;;;;5026116;28;20255;-79
2023/03/25 00:28:56;;;;;;;8.38;5.35;;;12.70;99.90;;;;;;5022295;28;20279;-76
2023/03/25 00:31:45;;;;;;;8.02;5.43;;;12.60;99.90;;;;;;5023735;28;20320;-77
2023/03/25 00:34:40;;;;;;;8.45;5.78;;;12.60;99.90;;;;;;5026419;28;20222;-77
2023/03/25 00:37:32;;;;;;;6.60;5.25;;;12.60;99.90;;;;;;5026964;28;20229;-77
2023/03/25 00:40:20;;;;;;;8.90;5.38;;;12.50;99.90;;;;;;5008660;28;20249;-78
2023/03/25 00:43:10;;;;;;;8.27;5.80;;;12.40;99.90;;;;;;5011365;28;20234;-78
2023/03/25 00:46:01;;;;;;;9.10;5.72;;;12.40;99.90;;;;;;5016454;28;20340;-77
2023/03/25 00:48:51;;;;;;;7.47;5.57;;;12.40;99.90;;;;;;5014806;28;20247;-77
2023/03/25 00:51:40;;;;;;;8.43;5.85;;;12.30;99.90;;;;;;5001786;28;20238;-77
2023/03/25 00:54:41;;;;;;;7.50;5.25;;;12.30;99.90;;;;;;5009019;28;20237;-77
2023/03/25 00:57:30;;;;;;;8.18;5.80;;;12.40;99.90;;;;;;5004340;28;20225;-78
2023/03/25 01:00:19;;;;;;;9.13;6.00;;;12.30;99.90;;;;;;5031480;28;20652;-77
2023/03/25 01:03:11;;;;;;;8.73;5.85;;;12.30;99.90;;;;;;5022298;28;20237;-76
2023/03/25 01:06:00;;;;;;;8.18;6.15;;;12.30;99.90;;;;;;5011891;28;20333;-77
2023/03/25 01:08:56;;;;;;;7.47;5.70;;;12.40;99.90;;;;;;5011412;28;20225;-76
2023/03/25 01:11:46;;;;;;;6.72;5.88;;;12.40;99.90;;;;;;5024583;28;20310;-77
2023/03/25 01:14:35;;;;;;;7.53;5.95;;;12.30;99.90;;;;;;5023648;28;20228;-76
2023/03/25 01:17:24;;;;;;;9.65;5.65;;;12.20;99.90;;;;;;5021657;28;20236;-76
2023/03/25 01:20:14;;;;;;;8.38;6.15;;;12.20;99.90;;;;;;5008461;28;20221;-77
2023/03/25 01:23:03;;;;;;;8.02;5.57;;;12.30;99.90;;;;;;5005247;28;20224;-77
2023/03/25 01:25:52;;;;;;;8.65;6.28;;;12.20;99.90;;;;;;5009512;28;20230;-76
2023/03/25 01:28:42;;;;;;;7.10;5.65;;;12.20;99.90;;;;;;5026856;28;20775;-77
2023/03/25 01:31:31;;;;;;;9.07;6.25;;;12.10;99.90;;;;;;5023946;28;20343;-78
2023/03/25 01:34:20;;;;;;;8.10;6.25;;;12.10;99.90;;;;;;5015068;28;20538;-74
2023/03/25 01:37:10;;;;;;;8.02;6.53;;;11.90;99.90;;;;;;5006902;28;20241;-77
2023/03/25 01:39:59;;;;;;;10.90;6.93;;;11.90;99.90;;;;;;5018426;28;20240;-77
2023/03/25 01:42:48;;;;;;;9.63;7.13;;;11.90;99.90;;;;;;5022448;28;20274;-77
2023/03/25 01:45:37;;;;;;;10.55;7.05;;;11.90;99.90;;;;;;5006113;28;20237;-77
2023/03/25 01:48:31;;;;;;;8.23;6.30;;;11.80;99.90;;;;;;5017740;28;20226;-77
2023/03/25 01:51:27;;;;;;;10.88;7.40;;;11.80;99.90;;;;;;5021256;28;20213;-77
2023/03/25 01:54:17;;;;;;;11.27;7.00;;;11.70;99.90;;;;;;5015706;28;20285;-77
2023/03/25 01:57:08;;;;;;;9.45;7.40;;;11.70;99.90;;;;;;5027956;28;20218;-77
2023/03/25 01:59:56;;;;;;;11.18;7.15;;;11.70;99.90;;;;;;5014287;28;20225;-76
2023/03/25 02:02:47;;;;;;;10.15;6.97;;;11.60;99.90;;;;;;4993397;28;20218;-76
2023/03/25 02:05:42;;;;;;;11.93;7.53;;;11.70;99.90;;;;;;5013715;28;20234;-77
2023/03/25 02:08:32;;;;;;;8.82;6.80;;;11.70;99.90;;;;;;5015081;28;20226;-77
2023/03/25 02:11:27;;;;;;;10.90;7.18;;;11.60;99.90;;;;;;5022251;28;20222;-77
2023/03/25 02:14:21;;;;;;;12.30;7.30;;;11.70;99.90;;;;;;5019597;28;20789;-76
2023/03/25 02:17:18;;;;;;;8.68;6.70;;;11.60;99.90;;;;;;5019184;28;20229;-76
2023/03/25 02:20:34;;;;;;;11.00;7.55;;;11.40;99.90;;;;;;5007722;28;20274;-77
2023/03/25 02:23:58;;;;;;;10.15;7.50;;;11.50;99.90;;;;;;5005463;28;20569;-77
2023/03/25 02:27:14;;;;;;;12.15;7.75;;;11.40;99.90;;;;;;5012384;28;20218;-77
2023/03/25 02:30:29;;;;;;;10.98;7.93;;;11.50;99.90;;;;;;5006481;28;20755;-77
2023/03/25 02:33:38;;;;;;;12.02;7.85;;;11.30;99.90;;;;;;5019789;28;20269;-77
2023/03/25 02:37:03;;;;;;;9.80;7.88;;;11.20;99.90;;;;;;5019264;28;20233;-76
2023/03/25 02:39:58;;;;;;;12.25;7.38;;;11.30;99.90;;;;;;5003045;28;20669;-76
2023/03/25 02:42:52;;;;;;;11.70;7.53;;;11.30;99.90;;;;;;5018861;28;20222;-76
2023/03/25 02:45:46;;;;;;;11.68;8.13;;;11.30;99.90;;;;;;5019643;28;20240;-76
2023/03/25 02:48:40;;;;;;;10.02;7.80;;;11.20;99.90;;;;;;5030312;28;20226;-76
2023/03/25 02:51:32;;;;;;;11.57;8.20;;;11.20;99.90;;;;;;5010038;28;20446;-77
2023/03/25 02:54:27;;;;;;;10.75;8.07;;;11.00;99.90;;;;;;5016626;28;20244;-77
2023/03/25 02:57:20;;;;;;;11.25;7.88;;;11.00;99.90;;;;;;5014629;28;20225;-77
2023/03/25 03:00:14;;;;;;;10.10;8.23;;;11.00;99.90;;;;;;5010343;28;20221;-76
2023/03/25 03:03:06;;;;;;;11.25;7.82;;;11.10;99.90;;;;;;5016832;28;20221;-77
2023/03/25 03:05:58;;;;;;;10.45;8.00;;;11.00;99.90;;;;;;5010290;28;20752;-76
2023/03/25 03:09:13;;;;;;;11.85;8.02;;;11.00;99.90;;;;;;5021791;28;20226;-76
2023/03/25 03:12:15;;;;;;;14.88;8.30;;;11.10;99.90;;;;;;5021279;28;20225;-76
2023/03/25 03:15:19;;;;;;;12.10;8.45;;;10.90;99.90;;;;;;5025548;28;20252;-78
2023/03/25 03:18:18;;;;;;;10.10;8.45;;;11.00;99.90;;;;;;5026357;28;20233;-77
2023/03/25 03:21:13;;;;;;;11.80;8.30;;;10.90;99.90;;;;;;5005546;28;20222;-77
2023/03/25 03:24:13;;;;;;;12.57;8.52;;;10.90;99.90;;;;;;5028098;28;20773;-77
2023/03/25 03:27:10;;;;;;;12.80;7.70;;;10.90;99.90;;;;;;5018459;28;20774;-77
2023/03/25 03:30:06;;;;;;;11.65;8.48;;;10.90;99.90;;;;;;5005476;28;20842;-77
2023/03/25 03:33:08;;;;;;;12.43;8.52;;;10.80;99.90;;;;;;5019116;28;20248;-77
2023/03/25 03:36:03;;;;;;;10.00;8.30;;;10.80;99.90;;;;;;5030383;28;20367;-76
2023/03/25 03:38:59;;;;;;;12.35;9.00;;;10.90;99.90;;;;;;5007374;28;20213;-78
2023/03/25 03:41:52;;;;;;;11.07;7.97;;;10.70;99.90;;;;;;5021712;28;20312;-76
2023/03/25 03:44:47;;;;;;;11.77;8.45;;;10.80;99.90;;;;;;5025116;28;20991;-77
2023/03/25 03:47:40;;;;;;;15.15;9.25;;;10.80;99.90;;;;;;5013435;28;20822;-76
2023/03/25 03:50:36;;;;;;;13.63;9.15;;;10.70;99.90;;;;;;5025738;28;20751;-76
2023/03/25 03:53:29;;;;;;;13.43;9.13;;;10.70;99.90;;;;;;5021769;28;20609;-77
2023/03/25 03:56:22;;;;;;;11.63;9.02;;;10.70;99.90;;;;;;5027649;28;20649;-77
2023/03/25 03:59:15;;;;;;;13.30;8.85;;;10.80;99.90;;;;;;5023298;28;20225;-76
2023/03/25 04:02:13;;;;;;;13.63;9.25;;;10.80;99.90;;;;;;5011033;28;20222;-77
2023/03/25 04:05:02;;;;;;;12.50;8.93;;;10.70;99.90;;;;;;5019831;28;20720;-76
2023/03/25 04:07:58;;;;;;;14.07;9.75;;;10.80;99.90;;;;;;5028583;28;20649;-76
2023/03/25 04:10:57;;;;;;;11.65;9.32;;;10.70;99.90;;;;;;5024792;28;20213;-76
2023/03/25 04:13:49;;;;;;;11.43;9.27;;;10.70;99.90;;;;;;5019331;28;20229;-77
2023/03/25 04:16:38;;;;;;;14.82;9.23;;;10.60;99.90;;;;;;5002069;28;20229;-76
2023/03/25 04:19:27;;;;;;;13.60;9.70;;;10.60;99.90;;;;;;5029085;28;20636;-77
2023/03/25 04:22:18;;;;;;;13.95;9.45;;;10.60;99.90;;;;;;5015483;28;20321;-76
2023/03/25 04:25:09;;;;;;;14.10;9.57;;;10.60;99.90;;;;;;5022666;28;20225;-77
2023/03/25 04:27:59;;;;;;;13.05;10.20;;;10.50;99.90;;;;;;5025797;28;20700;-77
2023/03/25 04:30:49;;;;;;;14.68;10.45;;;10.50;99.90;;;;;;5030530;28;20232;-77
2023/03/25 04:33:37;;;;;;;13.80;9.90;;;10.60;99.90;;;;;;5014043;28;20705;-77
2023/03/25 04:36:28;;;;;;;16.80;10.25;;;10.70;99.90;;;;;;5024213;28;20228;-76
2023/03/25 04:39:21;;;;;;;16.38;10.40;;;10.80;99.90;;;;;;5033246;28;20772;-77
2023/03/25 04:42:12;;;;;;;13.90;9.70;;;10.80;99.90;;;;;;5011072;28;20232;-77
2023/03/25 04:45:01;;;;;;;12.93;9.60;;;10.70;99.90;;;;;;5012402;28;20692;-77
2023/03/25 04:47:52;;;;;;;14.10;10.45;;;10.70;99.90;;;;;;5024321;28;20640;-77
2023/03/25 04:50:42;;;;;;;17.60;10.98;;;10.80;99.90;;;;;;5013010;28;20289;-77
2023/03/25 04:53:31;;;;;;;13.70;10.15;;;10.80;99.90;;;;;;5027990;28;20240;-76
2023/03/25 04:56:20;;;;;;;13.13;10.25;;;10.70;99.90;;;;;;5018775;28;20217;-78
2023/03/25 04:59:10;;;;;;;17.20;11.48;;;10.70;99.90;;;;;;5031051;28;20221;-78
2023/03/25 05:02:01;;;;;;;14.40;9.98;;;10.60;99.90;;;;;;5014063;28;20767;-77
2023/03/25 05:04:50;;;;;;;15.75;10.55;;;10.60;99.90;;;;;;5012087;28;20220;-77
2023/03/25 05:07:38;;;;;;;18.33;10.30;;;10.70;99.90;;;;;;5022415;28;20217;-77
2023/03/25 05:10:28;;;;;;;14.90;10.73;;;10.70;99.90;;;;;;5006213;28;20233;-77
2023/03/25 05:13:17;;;;;;;16.35;11.00;;;10.70;99.90;;;;;;5025279;28;20644;-77
2023/03/25 05:16:11;;;;;;;14.52;11.00;;;10.80;99.90;;;;;;5026756;28;20225;-77
2023/03/25 05:19:02;;;;;;;16.55;11.07;;;10.90;99.90;;;;;;5002987;28;20219;-78
2023/03/25 05:21:51;;;;;;;14.30;11.18;;;10.80;99.90;;;;;;5000010;28;20218;-75
2023/03/25 05:24:44;;;;;;;17.20;11.32;;;10.80;99.90;;;;;;4993225;28;20231;-76
2023/03/25 05:27:33;;;;;;;18.20;12.23;;;10.80;99.90;;;;;;5003623;28;20241;-76
2023/03/25 05:30:22;;;;;;;16.63;12.30;;;10.80;99.90;;;;;;4995883;28;20223;-76
2023/03/25 05:33:14;;;;;;;17.27;12.00;;;11.00;99.90;;;;;;4988416;28;20218;-76
2023/03/25 05:36:03;;;;;;;15.75;11.77;;;10.90;99.90;;;;;;4992162;28;20233;-76
2023/03/25 05:38:54;;;;;;;19.13;12.35;;;11.00;99.90;;;;;;5001322;28;20518;-77
2023/03/25 05:41:44;;;;;;;16.23;12.27;;;11.10;99.90;;;;;;5009407;28;20238;-77
2023/03/25 05:44:33;;;;;;;19.60;12.80;;;11.10;99.90;;;;;;5009763;28;20313;-76
2023/03/25 05:47:24;;;;;;;18.73;13.60;;;11.10;99.90;;;;;;5008298;28;20223;-76
2023/03/25 05:50:15;;;;;;;21.05;15.80;;;11.30;99.90;;;;;;5010229;28;20226;-76
2023/03/25 05:53:04;;;;;;;23.38;19.05;;;11.20;99.90;;;;;;5006864;28;20225;-76
2023/03/25 05:55:53;;;;;;;23.35;19.27;;;11.10;99.90;;;;;;5001090;28;20239;-77
2023/03/25 05:58:41;;;;;;;25.90;19.73;;;11.10;99.90;;;;;;5006682;28;20256;-76
2023/03/25 06:01:33;;;;;;;23.23;18.65;;;11.10;99.90;;;;;;4988893;28;20229;-77
2023/03/25 06:04:22;;;;;;;24.05;19.00;;;11.10;99.90;;;;;;4978301;28;20223;-77
2023/03/25 06:07:18;;;;;;;25.60;17.73;;;11.20;99.90;;;;;;5007021;28;20234;-77
2023/03/25 06:10:08;;;;;;;22.17;17.25;;;11.20;99.90;;;;;;5004616;28;20218;-76
2023/03/25 06:12:57;;;;;;;18.40;16.15;;;11.20;99.90;;;;;;4991694;28;20226;-77
2023/03/25 06:15:46;;;;;;;23.15;14.07;;;11.30;99.90;;;;;;5005869;28;20230;-77
2023/03/25 06:18:36;;;;;;;19.95;14.85;;;11.30;99.90;;;;;;4997887;28;20245;-77
2023/03/25 06:21:26;;;;;;;19.27;14.75;;;11.30;99.90;;;;;;5013374;28;20241;-77
2023/03/25 06:24:17;;;;;;;17.15;13.30;;;11.40;99.90;;;;;;5027814;28;20555;-77
2023/03/25 06:27:08;;;;;;;20.95;13.95;;;11.40;99.90;;;;;;5010775;28;20219;-77
2023/03/25 06:29:57;;;;;;;19.10;13.52;;;11.40;99.90;;;;;;5022878;28;20221;-77
2023/03/25 06:32:49;;;;;;;16.90;13.40;;;11.40;99.90;;;;;;5024985;28;20214;-75
2023/03/25 06:35:38;;;;;;;19.02;12.93;;;11.50;99.90;;;;;;5001253;28;20311;-76
2023/03/25 06:38:28;;;;;;;18.05;13.52;;;11.50;99.90;;;;;;5011878;28;20312;-75
2023/03/25 06:41:34;;;;;;;16.08;12.63;;;11.60;99.90;;;;;;4982366;28;20233;-76
2023/03/25 06:44:42;;;;;;;17.52;12.40;;;11.70;99.90;;;;;;4997672;28;20238;-76
2023/03/25 06:47:50;;;;;;;17.17;13.18;;;11.70;99.90;;;;;;5003645;28;20225;-76
2023/03/25 06:50:39;;;;;;;19.02;12.73;;;11.80;99.90;;;;;;5020644;28;20247;-76
2023/03/25 06:53:31;;;;;;;17.90;13.10;;;11.80;99.90;;;;;;5021943;28;20323;-76
2023/03/25 06:56:20;;;;;;;18.13;13.32;;;11.80;99.90;;;;;;4999687;28;20355;-77
2023/03/25 06:59:10;;;;;;;15.07;11.88;;;11.80;99.90;;;;;;5006961;28;20925;-76
2023/03/25 07:01:59;;;;;;;17.58;12.05;;;11.80;99.90;;;;;;4988631;28;20227;-76
2023/03/25 07:04:48;;;;;;;17.23;11.80;;;12.00;99.90;;;;;;4996982;28;20238;-76
2023/03/25 07:07:37;;;;;;;17.20;11.60;;;12.10;99.90;;;;;;5011305;28;20260;-75
2023/03/25 07:10:26;;;;;;;15.43;12.40;;;12.10;99.90;;;;;;5006787;28;20245;-76
2023/03/25 07:13:14;;;;;;;15.45;11.80;;;11.90;99.90;;;;;;5001547;28;20682;-76
2023/03/25 07:16:06;;;;;;;18.42;12.57;;;11.80;99.90;;;;;;4992646;28;20918;-76
2023/03/25 07:18:55;;;;;;;18.92;14.18;;;11.70;99.90;;;;;;5006718;28;20505;-76
2023/03/25 07:21:44;;;;;;;17.23;11.45;;;11.60;99.90;;;;;;5007717;28;20320;-76
2023/03/25 07:24:33;;;;;;;15.45;12.10;;;11.70;99.90;;;;;;4986214;28;20462;-76
2023/03/25 07:27:22;;;;;;;16.50;11.68;;;11.70;99.90;;;;;;5007504;28;20233;-76
2023/03/25 07:30:20;;;;;;;14.48;11.40;;;11.70;99.90;;;;;;5006654;28;20370;-75
2023/03/25 07:33:10;;;;;;;16.60;11.70;;;11.80;99.90;;;;;;4999736;28;20218;-76
2023/03/25 07:35:59;;;;;;;15.75;11.82;;;11.90;99.90;;;;;;5000855;28;20229;-77
2023/03/25 07:38:48;;;;;;;16.05;11.00;;;11.80;99.90;;;;;;4994803;28;20218;-76
2023/03/25 07:41:37;;;;;;;15.98;10.88;;;12.10;99.90;;;;;;4979770;28;20222;-76
2023/03/25 07:45:02;;;;;;;15.30;11.40;;;12.20;99.90;;;;;;4934039;28;21250;-76
2023/03/25 07:47:52;;;;;;;13.75;10.82;;;12.40;99.90;;;;;;4981458;28;20411;-75
2023/03/25 07:50:44;;;;;;;14.63;10.93;;;12.60;99.90;;;;;;5011792;28;20724;-75
2023/03/25 07:53:33;;;;;;;13.20;10.27;;;12.70;99.90;;;;;;4998307;28;20230;-77
2023/03/25 07:56:22;;;;;;;13.40;10.32;;;12.80;99.90;;;;;;5007006;28;20245;-76
2023/03/25 07:59:11;;;;;;;14.00;10.32;;;13.30;99.90;;;;;;5005868;28;20245;-76
2023/03/25 08:02:03;;;;;;;13.38;9.57;;;13.70;99.90;;;;;;5008185;28;20383;-77
2023/03/25 08:04:53;;;;;;;15.10;10.32;;;13.70;99.90;;;;;;4981172;28;20591;-77
2023/03/25 08:07:43;;;;;;;12.85;10.07;;;13.70;99.90;;;;;;4989971;28;20226;-77
2023/03/25 08:10:33;;;;;;;13.45;9.15;;;13.90;99.90;;;;;;4997886;28;20230;-77
2023/03/25 08:13:22;;;;;;;13.82;9.30;;;14.20;99.90;;;;;;4997714;28;20234;-77
2023/03/25 08:16:16;;;;;;;13.52;8.63;;;14.60;99.90;;;;;;4995643;28;20225;-77
2023/03/25 08:19:05;;;;;;;12.95;9.30;;;15.00;99.90;;;;;;4997911;28;20234;-78
2023/03/25 08:21:54;;;;;;;10.65;8.57;;;15.60;99.90;;;;;;5001163;28;20400;-77
2023/03/25 08:24:46;;;;;;;11.48;8.20;;;16.50;99.90;;;;;;4987496;28;20302;-78
2023/03/25 08:27:35;;;;;;;15.40;8.48;;;16.80;99.90;;;;;;4991040;28;20292;-76
2023/03/25 08:30:24;;;;;;;11.70;8.00;;;17.10;99.90;;;;;;5003288;28;20245;-77
2023/03/25 08:33:13;;;;;;;12.95;7.93;;;16.90;99.90;;;;;;5005766;28;20268;-78
2023/03/25 08:36:08;;;;;;;10.70;7.88;;;17.30;99.90;;;;;;5005500;28;20277;-77
2023/03/25 08:38:57;;;;;;;12.90;8.18;;;17.20;99.90;;;;;;5004421;28;20242;-77
2023/03/25 08:41:47;;;;;;;10.98;8.13;;;17.50;99.90;;;;;;5005279;28;20233;-78
2023/03/25 08:44:36;;;;;;;12.75;8.50;;;17.40;99.90;;;;;;4988872;28;20227;-77
2023/03/25 08:47:25;;;;;;;13.07;8.60;;;17.70;99.90;;;;;;4991093;28;20249;-78
2023/03/25 08:50:14;;;;;;;11.63;7.95;;;18.20;99.90;;;;;;5010085;28;20241;-76
2023/03/25 08:53:04;;;;;;;10.25;7.15;;;18.40;99.90;;;;;;5005283;28;20218;-78
2023/03/25 08:55:54;;;;;;;9.82;5.93;;;18.60;99.90;;;;;;4992900;28;20677;-78
2023/03/25 08:58:44;;;;;;;9.90;5.78;;;18.80;99.90;;;;;;4997382;28;20227;-78
2023/03/25 09:01:33;;;;;;;8.35;5.60;;;19.30;99.90;;;;;;4992221;28;20882;-80
2023/03/25 09:04:22;;;;;;;9.82;6.00;;;19.50;99.90;;;;;;5010907;28;20225;-78
2023/03/25 09:07:11;;;;;;;8.65;6.10;;;19.60;99.90;;;;;;5007547;28;20221;-79
2023/03/25 09:10:00;;;;;;;9.18;5.65;;;19.80;99.90;;;;;;5003370;28;20218;-78
2023/03/25 09:12:50;;;;;;;8.68;5.38;;;19.80;99.90;;;;;;5000481;28;20620;-79
2023/03/25 09:15:40;;;;;;;7.97;4.68;;;19.90;99.90;;;;;;4986235;28;20227;-77
2023/03/25 09:18:30;;;;;;;8.88;5.53;;;19.50;99.90;;;;;;5021030;28;20954;-79
2023/03/25 09:21:19;;;;;;;8.23;5.68;;;18.90;99.90;;;;;;5032960;28;20221;-78
2023/03/25 09:24:09;;;;;;;8.13;5.88;;;18.00;99.90;;;;;;5028811;28;20308;-78
2023/03/25 09:26:58;;;;;;;8.00;5.50;;;17.60;99.90;;;;;;5031507;28;20221;-78
2023/03/25 09:29:47;;;;;;;6.60;4.93;;;17.50;99.90;;;;;;5016663;28;20217;-78
2023/03/25 09:32:37;;;;;;;9.00;5.43;;;17.00;99.90;;;;;;5023584;28;20232;-77
2023/03/25 09:35:26;;;;;;;8.23;5.70;;;16.90;99.90;;;;;;5019707;28;20225;-78
2023/03/25 09:38:15;;;;;;;8.75;4.97;;;16.80;99.90;;;;;;5012565;28;20673;-79
2023/03/25 09:41:16;;;;;;;9.63;5.18;;;16.90;99.90;;;;;;5020025;28;20732;-78
2023/03/25 09:44:14;;;;;;;7.90;4.90;;;17.10;99.90;;;;;;5008940;28;20226;-77
2023/03/25 09:47:04;;;;;;;9.02;5.38;;;17.20;99.90;;;;;;5027331;28;20325;-78
2023/03/25 09:49:59;;;;;;;6.95;5.25;;;17.20;99.90;;;;;;5018102;28;20222;-77
2023/03/25 09:52:54;;;;;;;7.60;5.30;;;17.10;99.90;;;;;;5011030;28;20281;-77
2023/03/25 09:55:46;;;;;;;8.02;5.32;;;17.20;99.90;;;;;;5018635;28;20241;-77
2023/03/25 09:58:41;;;;;;;9.95;5.07;;;17.00;99.90;;;;;;5032735;28;20229;-78
2023/03/25 10:01:40;;;;;;;5.53;3.70;;;17.00;99.90;;;;;;5019519;28;20252;-77
2023/03/25 10:04:52;;;;;;;9.57;3.78;;;16.90;99.90;;;;;;5024461;28;20299;-77
2023/03/25 10:07:59;;;;;;;5.88;4.25;;;17.00;99.90;;;;;;5032870;28;20242;-77
2023/03/25 10:10:52;;;;;;;10.18;5.07;;;16.60;99.90;;;;;;5023997;28;20308;-77
2023/03/25 10:13:50;;;;;;;7.32;4.88;;;16.80;99.90;;;;;;5033143;28;20258;-78
2023/03/25 10:16:51;;;;;;;7.70;4.63;;;17.00;99.90;;;;;;5018906;28;20242;-76
2023/03/25 10:19:55;;;;;;;7.78;4.55;;;17.30;99.90;;;;;;5023529;28;20267;-76
2023/03/25 10:23:00;;;;;;;6.53;4.57;;;17.40;99.90;;;;;;4998881;28;20225;-76
2023/03/25 10:25:56;;;;;;;5.75;4.13;;;17.50;99.90;;;;;;5025259;28;20251;-76
2023/03/25 10:28:54;;;;;;;10.13;4.80;;;17.40;99.90;;;;;;5018490;28;20332;-76
2023/03/25 10:31:51;;;;;;;8.05;5.15;;;17.40;99.90;;;;;;5022092;28;20237;-76
2023/03/25 10:34:45;;;;;;;8.88;5.13;;;17.40;99.90;;;;;;5015546;28;20308;-76
2023/03/25 10:37:41;;;;;;;9.20;5.30;;;17.20;99.90;;;;;;5036196;28;20233;-77
2023/03/25 10:40:36;;;;;;;10.15;5.53;;;17.00;99.90;;;;;;5021756;28;20938;-75
2023/03/25 10:43:27;;;;;;;10.48;5.25;;;16.90;99.90;;;;;;5028463;28;20226;-76
2023/03/25 10:46:24;;;;;;;8.93;5.30;;;16.90;99.90;;;;;;5023137;28;20311;-76
2023/03/25 10:49:17;;;;;;;8.27;5.50;;;16.90;99.90;;;;;;5011017;28;20229;-75
2023/03/25 10:52:06;;;;;;;8.10;4.97;;;16.90;99.90;;;;;;5036458;28;20462;-76
2023/03/25 10:54:56;;;;;;;6.28;4.15;;;17.00;99.90;;;;;;5024634;28;20275;-77
2023/03/25 10:57:47;;;;;;;7.93;4.80;;;16.60;99.90;;;;;;5025910;28;20221;-76
2023/03/25 11:00:36;;;;;;;7.53;4.05;;;16.20;99.90;;;;;;5034225;28;20772;-75
2023/03/25 11:03:30;;;;;;;8.60;4.05;;;16.60;99.90;;;;;;5021978;28;20940;-77
2023/03/25 11:06:25;;;;;;;6.22;3.65;;;16.90;99.90;;;;;;5026097;28;20217;-76
2023/03/25 11:09:22;;;;;;;5.85;3.63;;;16.70;99.90;;;;;;5023765;28;20573;-77
2023/03/25 11:12:11;;;;;;;6.35;3.22;;;16.80;99.90;;;;;;5017728;28;20236;-77
2023/03/25 11:15:02;;;;;;;6.82;2.90;;;16.80;99.90;;;;;;5020032;28;20884;-76
2023/03/25 11:17:58;;;;;;;5.30;3.30;;;17.00;99.90;;;;;;5013140;28;20236;-79
2023/03/25 11:20:51;;;;;;;4.38;2.80;;;17.20;99.90;;;;;;5020217;28;20225;-77
2023/03/25 11:23:45;;;;;;;8.07;3.35;;;17.40;99.90;;;;;;5025644;28;20218;-78
2023/03/25 11:26:39;;;;;;;7.15;3.03;;;17.30;99.90;;;;;;5041681;28;20305;-77
2023/03/25 11:29:29;;;;;;;6.80;3.10;;;17.40;99.90;;;;;;5025133;28;21017;-76
2023/03/25 11:32:24;;;;;;;4.60;3.30;;;17.50;99.90;;;;;;5025378;28;20230;-77
2023/03/25 11:35:18;;;;;;;7.65;3.28;;;17.70;99.90;;;;;;5019318;28;20716;-78
2023/03/25 11:38:15;;;;;;;5.97;3.10;;;17.60;99.90;;;;;;5033751;28;20537;-77
2023/03/25 11:41:05;;;;;;;4.47;2.65;;;17.50;99.90;;;;;;5023622;28;20248;-77
2023/03/25 11:43:54;;;;;;;6.15;3.20;;;17.50;99.90;;;;;;5015130;28;20232;-78
2023/03/25 11:46:45;;;;;;;7.57;3.25;;;17.30;99.90;;;;;;5024482;28;20226;-76
2023/03/25 11:49:38;;;;;;;6.72;3.55;;;17.30;99.90;;;;;;5016395;28;20237;-75
2023/03/25 11:52:36;;;;;;;7.60;2.90;;;17.10;99.90;;;;;;5027124;28;20892;-76
2023/03/25 11:55:28;;;;;;;5.93;2.90;;;17.20;99.90;;;;;;5016780;28;20237;-76
2023/03/25 11:58:21;;;;;;;7.03;3.30;;;17.30;99.90;;;;;;5020075;28;20236;-76
2023/03/25 12:01:24;;;;;;;4.53;2.75;;;17.20;99.90;;;;;;5033848;28;20253;-76
2023/03/25 12:04:17;;;;;;;6.05;2.92;;;17.00;99.90;;;;;;5037247;28;20304;-76
2023/03/25 12:07:10;;;;;;;6.78;3.33;;;16.80;99.90;;;;;;5020418;28;20585;-75
2023/03/25 12:10:05;;;;;;;4.43;2.90;;;16.80;99.90;;;;;;5023208;28;20233;-77
2023/03/25 12:13:00;;;;;;;7.45;3.33;;;16.90;99.90;;;;;;5025124;28;20231;-77
2023/03/25 12:15:58;;;;;;;5.95;3.15;;;16.70;99.90;;;;;;5035230;28;20232;-77
2023/03/25 12:19:05;;;;;;;7.13;3.70;;;16.60;99.90;;;;;;5016032;28;20455;-76
2023/03/25 12:22:20;;;;;;;6.88;3.50;;;16.60;99.90;;;;;;4998037;28;20617;-77
2023/03/25 12:25:25;;;;;;;6.38;3.05;;;16.70;99.90;;;;;;5018942;28;20283;-77
2023/03/25 12:28:38;;;;;;;8.65;3.97;;;16.60;99.90;;;;;;5013648;28;20234;-77
2023/03/25 12:31:43;;;;;;;6.20;3.05;;;16.70;99.90;;;;;;5038863;28;20541;-78
2023/03/25 12:34:45;;;;;;;7.05;3.60;;;16.70;99.90;;;;;;5031781;28;20231;-77
2023/03/25 12:37:48;;;;;;;7.57;3.28;;;16.40;99.90;;;;;;5024241;28;20224;-77
2023/03/25 12:40:54;;;;;;;6.35;3.17;;;16.60;99.90;;;;;;5026089;28;20221;-76
2023/03/25 12:44:02;;;;;;;14.88;3.72;;;16.70;99.90;;;;;;5015900;28;20214;-74
2023/03/25 12:47:09;;;;;;;9.70;3.58;;;16.70;99.90;;;;;;5026003;28;20221;-75
2023/03/25 12:50:13;;;;;;;7.28;3.75;;;16.80;99.90;;;;;;5025333;28;20589;-78
2023/03/25 12:53:22;;;;;;;6.03;3.67;;;17.00;99.90;;;;;;5023578;28;20224;-75
2023/03/25 12:56:21;;;;;;;58.05;6.85;;;17.10;99.90;;;;;;5035192;28;20566;-74
2023/03/25 12:59:46;;;;;;;9.15;4.05;;;17.10;99.90;;;;;;5013670;28;20240;-73
2023/03/25 13:03:02;;;;;;;7.30;3.80;;;17.10;99.90;;;;;;5018898;28;20729;-73
2023/03/25 13:05:57;;;;;;;11.02;5.22;;;17.10;99.90;;;;;;5024363;28;20222;-72
2023/03/25 13:08:54;;;;;;;6.15;3.05;;;17.00;99.90;;;;;;5024256;28;20309;-71
2023/03/25 13:11:48;;;;;;;5.32;3.17;;;16.70;99.90;;;;;;5021725;28;20244;-72
2023/03/25 13:14:41;;;;;;;10.35;3.85;;;16.40;99.90;;;;;;5018216;28;20226;-73
2023/03/25 13:17:35;;;;;;;18.48;5.10;;;15.90;99.90;;;;;;5037034;28;20326;-70
2023/03/25 13:20:27;;;;;;;8.75;3.92;;;15.30;99.90;;;;;;5023044;28;20786;-72
2023/03/25 13:23:23;;;;;;;6.97;3.53;;;15.00;99.90;;;;;;5016511;28;20240;-76
2023/03/25 13:26:17;;;;;;;8.88;3.40;;;15.00;99.90;;;;;;5007119;28;20272;-72
2023/03/25 13:29:07;;;;;;;8.35;3.80;;;15.00;99.90;;;;;;5015967;28;20236;-73
2023/03/25 13:32:00;;;;;;;8.30;3.72;;;15.00;99.90;;;;;;5014150;28;20237;-72
2023/03/25 13:34:55;;;;;;;8.40;4.63;;;14.90;99.90;;;;;;5016816;28;20226;-73
2023/03/25 13:37:46;;;;;;;7.15;4.00;;;15.20;99.90;;;;;;5018002;28;20229;-72
2023/03/25 13:40:43;;;;;;;6.63;3.90;;;15.20;99.90;;;;;;5028574;28;20233;-72
2023/03/25 13:43:41;;;;;;;9.15;4.90;;;15.10;99.90;;;;;;5011177;28;20221;-71
2023/03/25 13:46:35;;;;;;;11.20;5.18;;;15.10;99.90;;;;;;5014130;28;20321;-70
2023/03/25 13:49:30;;;;;;;7.22;5.22;;;15.20;99.90;;;;;;5020641;28;20224;-74
2023/03/25 13:52:19;;;;;;;10.73;5.07;;;15.20;99.90;;;;;;5017285;28;20331;-74
2023/03/25 13:55:15;;;;;;;11.00;5.95;;;15.20;99.90;;;;;;5031728;28;20253;-74
2023/03/25 13:58:32;;;;;;;10.32;5.55;;;15.30;99.90;;;;;;5017253;28;20596;-75
2023/03/25 14:01:48;;;;;;;10.13;5.57;;;15.30;99.90;;;;;;5021581;28;20213;-73
2023/03/25 14:05:21;;;;;;;10.35;5.80;;;15.20;99.90;;;;;;5008509;28;20240;-74
2023/03/25 14:08:42;;;;;;;8.45;5.25;;;15.00;99.90;;;;;;5027963;28;20234;-73
2023/03/25 14:11:37;;;;;;;11.23;5.80;;;15.00;99.90;;;;;;5032397;28;20836;-73
2023/03/25 14:14:27;;;;;;;7.57;5.07;;;15.20;99.90;;;;;;5026327;28;20221;-74
2023/03/25 14:17:19;;;;;;;11.80;5.70;;;15.10;99.90;;;;;;5003699;28;20308;-71
2023/03/25 14:20:11;;;;;;;8.68;4.82;;;15.20;99.90;;;;;;4982699;28;20226;-72
2023/03/25 14:23:03;;;;;;;8.18;4.90;;;15.10;99.90;;;;;;4992831;28;20703;-73
2023/03/25 14:25:57;;;;;;;9.90;5.43;;;15.40;99.90;;;;;;4993977;28;21023;-73
2023/03/25 14:28:47;;;;;;;9.27;5.10;;;15.30;99.90;;;;;;4993438;28;20590;-74
2023/03/25 14:31:36;;;;;;;7.80;5.15;;;15.50;99.90;;;;;;4984629;28;20226;-75
2023/03/25 14:34:28;;;;;;;7.38;5.15;;;15.30;99.90;;;;;;5001130;28;20230;-74
2023/03/25 14:37:28;;;;;;;6.47;4.72;;;15.30;99.90;;;;;;5000560;28;20222;-73
2023/03/25 14:40:48;;;;;;;8.50;4.50;;;15.30;99.90;;;;;;5004086;28;20221;-74
2023/03/25 14:43:46;;;;;;;8.35;4.60;;;15.10;99.90;;;;;;4998783;28;21200;-76
2023/03/25 14:46:35;;;;;;;7.78;4.10;;;15.00;99.90;;;;;;5002319;28;20225;-77
2023/03/25 14:49:45;;;;;;;7.22;4.47;;;14.90;99.90;;;;;;4985109;28;20257;-75
2023/03/25 14:52:41;;;;;;;5.30;4.05;;;15.00;99.90;;;;;;4999248;28;20763;-77
2023/03/25 14:55:32;;;;;;;6.13;3.80;;;14.90;99.90;;;;;;4996358;28;20738;-77